<?xml version="1.0" encoding="UTF-8" standalone="no" ?>
<gpx xmlns="http://www.topografix.com/GPX/1/1" xmlns:xsi="http://www.w3.org/2001/XMLSchema-instance" xsi:schemaLocation="http://www.topografix.com/GPX/1/1 http://www.topografix.com/GPX/1/1/gpx.xsd" version="1.1" creator="VisuGPX - https://www.visugpx.com">
  <metadata>
    <name>Sainte Victoire </name>
    <desc><![CDATA[grp_trc:[nouvelles]]]></desc>
  </metadata>
  <trk>
    <name><![CDATA[16 févr. 2019 à 10:23:06]]></name>
    <cmt><![CDATA[16 févr. 2019 à 10:23:06]]></cmt>
    <trkseg>
      <trkpt lat="45.53884" lon="6.37307">
        <ele>1267</ele>
        <time>2019-02-16T09:23:06Z</time>
      </trkpt>
      <trkpt lat="45.53884" lon="6.37307">
        <ele>1267</ele>
        <time>2019-02-16T09:23:07Z</time>
      </trkpt>
      <trkpt lat="45.53908" lon="6.37316">
        <ele>1270</ele>
        <time>2019-02-16T09:23:34Z</time>
      </trkpt>
      <trkpt lat="45.53919" lon="6.37322">
        <ele>1273</ele>
        <time>2019-02-16T09:23:40Z</time>
      </trkpt>
      <trkpt lat="45.53925" lon="6.37327">
        <ele>1273</ele>
        <time>2019-02-16T09:23:45Z</time>
      </trkpt>
      <trkpt lat="45.53932" lon="6.37326">
        <ele>1274</ele>
        <time>2019-02-16T09:24:16Z</time>
      </trkpt>
      <trkpt lat="45.53937" lon="6.37325">
        <ele>1275</ele>
        <time>2019-02-16T09:24:19Z</time>
      </trkpt>
      <trkpt lat="45.53943" lon="6.37325">
        <ele>1276</ele>
        <time>2019-02-16T09:24:25Z</time>
      </trkpt>
      <trkpt lat="45.53953" lon="6.37313">
        <ele>1278</ele>
        <time>2019-02-16T09:24:40Z</time>
      </trkpt>
      <trkpt lat="45.53959" lon="6.3731">
        <ele>1279</ele>
        <time>2019-02-16T09:24:45Z</time>
      </trkpt>
      <trkpt lat="45.53965" lon="6.37311">
        <ele>1280</ele>
        <time>2019-02-16T09:24:56Z</time>
      </trkpt>
      <trkpt lat="45.53973" lon="6.37311">
        <ele>1282</ele>
        <time>2019-02-16T09:25:13Z</time>
      </trkpt>
      <trkpt lat="45.53986" lon="6.37312">
        <ele>1283</ele>
        <time>2019-02-16T09:25:29Z</time>
      </trkpt>
      <trkpt lat="45.53991" lon="6.37317">
        <ele>1285</ele>
        <time>2019-02-16T09:25:41Z</time>
      </trkpt>
      <trkpt lat="45.53995" lon="6.37327">
        <ele>1287</ele>
        <time>2019-02-16T09:25:54Z</time>
      </trkpt>
      <trkpt lat="45.54012" lon="6.37349">
        <ele>1290</ele>
        <time>2019-02-16T09:26:22Z</time>
      </trkpt>
      <trkpt lat="45.54018" lon="6.37361">
        <ele>1292</ele>
        <time>2019-02-16T09:26:32Z</time>
      </trkpt>
      <trkpt lat="45.54022" lon="6.37364">
        <ele>1292</ele>
        <time>2019-02-16T09:26:34Z</time>
      </trkpt>
      <trkpt lat="45.54026" lon="6.37366">
        <ele>1293</ele>
        <time>2019-02-16T09:26:45Z</time>
      </trkpt>
      <trkpt lat="45.54034" lon="6.37371">
        <ele>1294</ele>
        <time>2019-02-16T09:27:33Z</time>
      </trkpt>
      <trkpt lat="45.54044" lon="6.37375">
        <ele>1296</ele>
        <time>2019-02-16T09:27:43Z</time>
      </trkpt>
      <trkpt lat="45.54052" lon="6.37378">
        <ele>1298</ele>
        <time>2019-02-16T09:27:58Z</time>
      </trkpt>
      <trkpt lat="45.54061" lon="6.3738">
        <ele>1299</ele>
        <time>2019-02-16T09:28:06Z</time>
      </trkpt>
      <trkpt lat="45.54064" lon="6.37382">
        <ele>1300</ele>
        <time>2019-02-16T09:28:09Z</time>
      </trkpt>
      <trkpt lat="45.54069" lon="6.37383">
        <ele>1301</ele>
        <time>2019-02-16T09:28:13Z</time>
      </trkpt>
      <trkpt lat="45.54092" lon="6.37401">
        <ele>1305</ele>
        <time>2019-02-16T09:28:39Z</time>
      </trkpt>
      <trkpt lat="45.54097" lon="6.37398">
        <ele>1306</ele>
        <time>2019-02-16T09:28:45Z</time>
      </trkpt>
      <trkpt lat="45.54101" lon="6.37397">
        <ele>1307</ele>
        <time>2019-02-16T09:28:49Z</time>
      </trkpt>
      <trkpt lat="45.541" lon="6.37387">
        <ele>1309</ele>
        <time>2019-02-16T09:29:03Z</time>
      </trkpt>
      <trkpt lat="45.54096" lon="6.37379">
        <ele>1311</ele>
        <time>2019-02-16T09:29:16Z</time>
      </trkpt>
      <trkpt lat="45.54097" lon="6.3737">
        <ele>1312</ele>
        <time>2019-02-16T09:29:21Z</time>
      </trkpt>
      <trkpt lat="45.54102" lon="6.37363">
        <ele>1314</ele>
        <time>2019-02-16T09:29:33Z</time>
      </trkpt>
      <trkpt lat="45.54107" lon="6.37368">
        <ele>1317</ele>
        <time>2019-02-16T09:29:51Z</time>
      </trkpt>
      <trkpt lat="45.54131" lon="6.37394">
        <ele>1320</ele>
        <time>2019-02-16T09:30:16Z</time>
      </trkpt>
      <trkpt lat="45.54135" lon="6.37393">
        <ele>1321</ele>
        <time>2019-02-16T09:30:19Z</time>
      </trkpt>
      <trkpt lat="45.5414" lon="6.37395">
        <ele>1321</ele>
        <time>2019-02-16T09:30:23Z</time>
      </trkpt>
      <trkpt lat="45.54142" lon="6.37399">
        <ele>1322</ele>
        <time>2019-02-16T09:30:27Z</time>
      </trkpt>
      <trkpt lat="45.54146" lon="6.37406">
        <ele>1323</ele>
        <time>2019-02-16T09:30:35Z</time>
      </trkpt>
      <trkpt lat="45.54156" lon="6.37405">
        <ele>1324</ele>
        <time>2019-02-16T09:30:47Z</time>
      </trkpt>
      <trkpt lat="45.54151" lon="6.37394">
        <ele>1327</ele>
        <time>2019-02-16T09:31:05Z</time>
      </trkpt>
      <trkpt lat="45.54149" lon="6.37376">
        <ele>1328</ele>
        <time>2019-02-16T09:31:15Z</time>
      </trkpt>
      <trkpt lat="45.54153" lon="6.37364">
        <ele>1329</ele>
        <time>2019-02-16T09:31:23Z</time>
      </trkpt>
      <trkpt lat="45.54159" lon="6.37366">
        <ele>1331</ele>
        <time>2019-02-16T09:31:32Z</time>
      </trkpt>
      <trkpt lat="45.54166" lon="6.37362">
        <ele>1334</ele>
        <time>2019-02-16T09:31:49Z</time>
      </trkpt>
      <trkpt lat="45.54177" lon="6.3737">
        <ele>1336</ele>
        <time>2019-02-16T09:32:00Z</time>
      </trkpt>
      <trkpt lat="45.54185" lon="6.37377">
        <ele>1337</ele>
        <time>2019-02-16T09:32:07Z</time>
      </trkpt>
      <trkpt lat="45.54191" lon="6.37378">
        <ele>1337</ele>
        <time>2019-02-16T09:32:15Z</time>
      </trkpt>
      <trkpt lat="45.54199" lon="6.37386">
        <ele>1339</ele>
        <time>2019-02-16T09:32:27Z</time>
      </trkpt>
      <trkpt lat="45.54204" lon="6.37387">
        <ele>1340</ele>
        <time>2019-02-16T09:32:34Z</time>
      </trkpt>
      <trkpt lat="45.54221" lon="6.37396">
        <ele>1343</ele>
        <time>2019-02-16T09:32:53Z</time>
      </trkpt>
      <trkpt lat="45.54228" lon="6.37393">
        <ele>1345</ele>
        <time>2019-02-16T09:33:06Z</time>
      </trkpt>
      <trkpt lat="45.54235" lon="6.37393">
        <ele>1349</ele>
        <time>2019-02-16T09:33:24Z</time>
      </trkpt>
      <trkpt lat="45.54239" lon="6.374">
        <ele>1349</ele>
        <time>2019-02-16T09:33:29Z</time>
      </trkpt>
      <trkpt lat="45.54247" lon="6.37405">
        <ele>1351</ele>
        <time>2019-02-16T09:33:43Z</time>
      </trkpt>
      <trkpt lat="45.54253" lon="6.37403">
        <ele>1352</ele>
        <time>2019-02-16T09:33:49Z</time>
      </trkpt>
      <trkpt lat="45.54273" lon="6.37412">
        <ele>1355</ele>
        <time>2019-02-16T09:34:14Z</time>
      </trkpt>
      <trkpt lat="45.54278" lon="6.37412">
        <ele>1357</ele>
        <time>2019-02-16T09:34:19Z</time>
      </trkpt>
      <trkpt lat="45.54285" lon="6.37418">
        <ele>1357</ele>
        <time>2019-02-16T09:34:24Z</time>
      </trkpt>
      <trkpt lat="45.54289" lon="6.37422">
        <ele>1358</ele>
        <time>2019-02-16T09:34:41Z</time>
      </trkpt>
      <trkpt lat="45.54297" lon="6.3742">
        <ele>1358</ele>
        <time>2019-02-16T09:34:59Z</time>
      </trkpt>
      <trkpt lat="45.54307" lon="6.37423">
        <ele>1361</ele>
        <time>2019-02-16T09:36:23Z</time>
      </trkpt>
      <trkpt lat="45.54313" lon="6.37423">
        <ele>1363</ele>
        <time>2019-02-16T09:36:35Z</time>
      </trkpt>
      <trkpt lat="45.54327" lon="6.37434">
        <ele>1365</ele>
        <time>2019-02-16T09:36:55Z</time>
      </trkpt>
      <trkpt lat="45.54341" lon="6.37435">
        <ele>1368</ele>
        <time>2019-02-16T09:37:19Z</time>
      </trkpt>
      <trkpt lat="45.54353" lon="6.37427">
        <ele>1372</ele>
        <time>2019-02-16T09:37:41Z</time>
      </trkpt>
      <trkpt lat="45.54366" lon="6.37425">
        <ele>1377</ele>
        <time>2019-02-16T09:38:05Z</time>
      </trkpt>
      <trkpt lat="45.54382" lon="6.37422">
        <ele>1379</ele>
        <time>2019-02-16T09:38:25Z</time>
      </trkpt>
      <trkpt lat="45.54398" lon="6.37421">
        <ele>1380</ele>
        <time>2019-02-16T09:38:38Z</time>
      </trkpt>
      <trkpt lat="45.54407" lon="6.37418">
        <ele>1382</ele>
        <time>2019-02-16T09:38:53Z</time>
      </trkpt>
      <trkpt lat="45.54437" lon="6.37419">
        <ele>1389</ele>
        <time>2019-02-16T09:39:32Z</time>
      </trkpt>
      <trkpt lat="45.54446" lon="6.37421">
        <ele>1388</ele>
        <time>2019-02-16T09:39:43Z</time>
      </trkpt>
      <trkpt lat="45.54461" lon="6.37419">
        <ele>1389</ele>
        <time>2019-02-16T09:40:04Z</time>
      </trkpt>
      <trkpt lat="45.54467" lon="6.37419">
        <ele>1389</ele>
        <time>2019-02-16T09:40:09Z</time>
      </trkpt>
      <trkpt lat="45.54474" lon="6.37424">
        <ele>1389</ele>
        <time>2019-02-16T09:40:15Z</time>
      </trkpt>
      <trkpt lat="45.54482" lon="6.37425">
        <ele>1389</ele>
        <time>2019-02-16T09:40:24Z</time>
      </trkpt>
      <trkpt lat="45.54496" lon="6.3743">
        <ele>1388</ele>
        <time>2019-02-16T09:40:30Z</time>
      </trkpt>
      <trkpt lat="45.54503" lon="6.3743">
        <ele>1389</ele>
        <time>2019-02-16T09:40:37Z</time>
      </trkpt>
      <trkpt lat="45.54512" lon="6.37424">
        <ele>1389</ele>
        <time>2019-02-16T09:40:49Z</time>
      </trkpt>
      <trkpt lat="45.54516" lon="6.37427">
        <ele>1389</ele>
        <time>2019-02-16T09:40:51Z</time>
      </trkpt>
      <trkpt lat="45.54523" lon="6.37426">
        <ele>1389</ele>
        <time>2019-02-16T09:40:59Z</time>
      </trkpt>
      <trkpt lat="45.54532" lon="6.37426">
        <ele>1390</ele>
        <time>2019-02-16T09:41:06Z</time>
      </trkpt>
      <trkpt lat="45.54541" lon="6.37419">
        <ele>1390</ele>
        <time>2019-02-16T09:41:12Z</time>
      </trkpt>
      <trkpt lat="45.54545" lon="6.37415">
        <ele>1389</ele>
        <time>2019-02-16T09:41:14Z</time>
      </trkpt>
      <trkpt lat="45.54551" lon="6.37405">
        <ele>1388</ele>
        <time>2019-02-16T09:41:19Z</time>
      </trkpt>
      <trkpt lat="45.54555" lon="6.37402">
        <ele>1388</ele>
        <time>2019-02-16T09:41:23Z</time>
      </trkpt>
      <trkpt lat="45.54559" lon="6.37402">
        <ele>1388</ele>
        <time>2019-02-16T09:41:26Z</time>
      </trkpt>
      <trkpt lat="45.54563" lon="6.37399">
        <ele>1387</ele>
        <time>2019-02-16T09:41:29Z</time>
      </trkpt>
      <trkpt lat="45.54567" lon="6.37393">
        <ele>1387</ele>
        <time>2019-02-16T09:41:32Z</time>
      </trkpt>
      <trkpt lat="45.54569" lon="6.37388">
        <ele>1387</ele>
        <time>2019-02-16T09:41:35Z</time>
      </trkpt>
      <trkpt lat="45.54574" lon="6.37383">
        <ele>1386</ele>
        <time>2019-02-16T09:41:54Z</time>
      </trkpt>
      <trkpt lat="45.54579" lon="6.37378">
        <ele>1385</ele>
        <time>2019-02-16T09:42:18Z</time>
      </trkpt>
      <trkpt lat="45.54587" lon="6.37376">
        <ele>1384</ele>
        <time>2019-02-16T09:42:22Z</time>
      </trkpt>
      <trkpt lat="45.54596" lon="6.37381">
        <ele>1383</ele>
        <time>2019-02-16T09:42:48Z</time>
      </trkpt>
      <trkpt lat="45.54602" lon="6.37374">
        <ele>1382</ele>
        <time>2019-02-16T09:43:06Z</time>
      </trkpt>
      <trkpt lat="45.54607" lon="6.37375">
        <ele>1382</ele>
        <time>2019-02-16T09:43:18Z</time>
      </trkpt>
      <trkpt lat="45.54619" lon="6.37356">
        <ele>1382</ele>
        <time>2019-02-16T09:43:32Z</time>
      </trkpt>
      <trkpt lat="45.54624" lon="6.37351">
        <ele>1382</ele>
        <time>2019-02-16T09:43:38Z</time>
      </trkpt>
      <trkpt lat="45.54638" lon="6.37351">
        <ele>1381</ele>
        <time>2019-02-16T09:43:48Z</time>
      </trkpt>
      <trkpt lat="45.54639" lon="6.37341">
        <ele>1382</ele>
        <time>2019-02-16T09:43:56Z</time>
      </trkpt>
      <trkpt lat="45.54644" lon="6.37334">
        <ele>1382</ele>
        <time>2019-02-16T09:44:03Z</time>
      </trkpt>
      <trkpt lat="45.54651" lon="6.37332">
        <ele>1383</ele>
        <time>2019-02-16T09:44:13Z</time>
      </trkpt>
      <trkpt lat="45.54655" lon="6.37321">
        <ele>1384</ele>
        <time>2019-02-16T09:44:30Z</time>
      </trkpt>
      <trkpt lat="45.54662" lon="6.37315">
        <ele>1385</ele>
        <time>2019-02-16T09:44:41Z</time>
      </trkpt>
      <trkpt lat="45.5467" lon="6.37313">
        <ele>1386</ele>
        <time>2019-02-16T09:44:50Z</time>
      </trkpt>
      <trkpt lat="45.54675" lon="6.37308">
        <ele>1388</ele>
        <time>2019-02-16T09:45:08Z</time>
      </trkpt>
      <trkpt lat="45.54679" lon="6.37302">
        <ele>1390</ele>
        <time>2019-02-16T09:45:20Z</time>
      </trkpt>
      <trkpt lat="45.54681" lon="6.37302">
        <ele>1389</ele>
        <time>2019-02-16T09:46:14Z</time>
      </trkpt>
      <trkpt lat="45.54686" lon="6.37312">
        <ele>1393</ele>
        <time>2019-02-16T09:48:21Z</time>
      </trkpt>
      <trkpt lat="45.54681" lon="6.37313">
        <ele>1392</ele>
        <time>2019-02-16T09:48:59Z</time>
      </trkpt>
      <trkpt lat="45.54686" lon="6.3732">
        <ele>1392</ele>
        <time>2019-02-16T09:49:15Z</time>
      </trkpt>
      <trkpt lat="45.54684" lon="6.37327">
        <ele>1393</ele>
        <time>2019-02-16T09:49:29Z</time>
      </trkpt>
      <trkpt lat="45.54695" lon="6.37345">
        <ele>1398</ele>
        <time>2019-02-16T09:50:18Z</time>
      </trkpt>
      <trkpt lat="45.54708" lon="6.37358">
        <ele>1406</ele>
        <time>2019-02-16T09:51:21Z</time>
      </trkpt>
      <trkpt lat="45.54719" lon="6.37341">
        <ele>1411</ele>
        <time>2019-02-16T09:51:52Z</time>
      </trkpt>
      <trkpt lat="45.54734" lon="6.37344">
        <ele>1411</ele>
        <time>2019-02-16T09:53:00Z</time>
      </trkpt>
      <trkpt lat="45.54734" lon="6.37364">
        <ele>1416</ele>
        <time>2019-02-16T09:53:30Z</time>
      </trkpt>
      <trkpt lat="45.54751" lon="6.3736">
        <ele>1420</ele>
        <time>2019-02-16T09:53:55Z</time>
      </trkpt>
      <trkpt lat="45.54753" lon="6.37382">
        <ele>1425</ele>
        <time>2019-02-16T09:54:20Z</time>
      </trkpt>
      <trkpt lat="45.5475" lon="6.3739">
        <ele>1426</ele>
        <time>2019-02-16T09:54:31Z</time>
      </trkpt>
      <trkpt lat="45.54746" lon="6.37399">
        <ele>1428</ele>
        <time>2019-02-16T09:54:49Z</time>
      </trkpt>
      <trkpt lat="45.54747" lon="6.37405">
        <ele>1430</ele>
        <time>2019-02-16T09:55:01Z</time>
      </trkpt>
      <trkpt lat="45.54746" lon="6.3741">
        <ele>1431</ele>
        <time>2019-02-16T09:55:07Z</time>
      </trkpt>
      <trkpt lat="45.54747" lon="6.37416">
        <ele>1431</ele>
        <time>2019-02-16T09:55:10Z</time>
      </trkpt>
      <trkpt lat="45.5475" lon="6.37423">
        <ele>1433</ele>
        <time>2019-02-16T09:55:23Z</time>
      </trkpt>
      <trkpt lat="45.54753" lon="6.37429">
        <ele>1435</ele>
        <time>2019-02-16T09:55:35Z</time>
      </trkpt>
      <trkpt lat="45.54758" lon="6.37431">
        <ele>1441</ele>
        <time>2019-02-16T09:56:11Z</time>
      </trkpt>
      <trkpt lat="45.54764" lon="6.37427">
        <ele>1443</ele>
        <time>2019-02-16T09:56:23Z</time>
      </trkpt>
      <trkpt lat="45.54767" lon="6.37421">
        <ele>1444</ele>
        <time>2019-02-16T09:56:31Z</time>
      </trkpt>
      <trkpt lat="45.54771" lon="6.3742">
        <ele>1446</ele>
        <time>2019-02-16T09:56:43Z</time>
      </trkpt>
      <trkpt lat="45.54777" lon="6.37424">
        <ele>1448</ele>
        <time>2019-02-16T09:57:19Z</time>
      </trkpt>
      <trkpt lat="45.5478" lon="6.37435">
        <ele>1449</ele>
        <time>2019-02-16T09:57:30Z</time>
      </trkpt>
      <trkpt lat="45.54777" lon="6.37448">
        <ele>1452</ele>
        <time>2019-02-16T09:57:51Z</time>
      </trkpt>
      <trkpt lat="45.54779" lon="6.37457">
        <ele>1454</ele>
        <time>2019-02-16T09:58:03Z</time>
      </trkpt>
      <trkpt lat="45.54782" lon="6.37466">
        <ele>1455</ele>
        <time>2019-02-16T09:58:14Z</time>
      </trkpt>
      <trkpt lat="45.54777" lon="6.37471">
        <ele>1457</ele>
        <time>2019-02-16T09:58:27Z</time>
      </trkpt>
      <trkpt lat="45.5478" lon="6.37481">
        <ele>1459</ele>
        <time>2019-02-16T09:58:47Z</time>
      </trkpt>
      <trkpt lat="45.54784" lon="6.37477">
        <ele>1461</ele>
        <time>2019-02-16T09:59:03Z</time>
      </trkpt>
      <trkpt lat="45.54779" lon="6.37469">
        <ele>1462</ele>
        <time>2019-02-16T09:59:37Z</time>
      </trkpt>
      <trkpt lat="45.54781" lon="6.37493">
        <ele>1463</ele>
        <time>2019-02-16T10:04:42Z</time>
      </trkpt>
      <trkpt lat="45.5479" lon="6.37507">
        <ele>1466</ele>
        <time>2019-02-16T10:05:12Z</time>
      </trkpt>
      <trkpt lat="45.54796" lon="6.37511">
        <ele>1469</ele>
        <time>2019-02-16T10:05:48Z</time>
      </trkpt>
      <trkpt lat="45.54801" lon="6.37516">
        <ele>1472</ele>
        <time>2019-02-16T10:06:08Z</time>
      </trkpt>
      <trkpt lat="45.54796" lon="6.37525">
        <ele>1474</ele>
        <time>2019-02-16T10:06:23Z</time>
      </trkpt>
      <trkpt lat="45.54801" lon="6.37534">
        <ele>1475</ele>
        <time>2019-02-16T10:06:35Z</time>
      </trkpt>
      <trkpt lat="45.54807" lon="6.37536">
        <ele>1476</ele>
        <time>2019-02-16T10:06:39Z</time>
      </trkpt>
      <trkpt lat="45.54812" lon="6.37541">
        <ele>1477</ele>
        <time>2019-02-16T10:06:48Z</time>
      </trkpt>
      <trkpt lat="45.54809" lon="6.37552">
        <ele>1481</ele>
        <time>2019-02-16T10:07:12Z</time>
      </trkpt>
      <trkpt lat="45.54803" lon="6.37575">
        <ele>1483</ele>
        <time>2019-02-16T10:07:47Z</time>
      </trkpt>
      <trkpt lat="45.54798" lon="6.37578">
        <ele>1484</ele>
        <time>2019-02-16T10:07:52Z</time>
      </trkpt>
      <trkpt lat="45.54799" lon="6.37586">
        <ele>1485</ele>
        <time>2019-02-16T10:08:01Z</time>
      </trkpt>
      <trkpt lat="45.54796" lon="6.37592">
        <ele>1486</ele>
        <time>2019-02-16T10:08:13Z</time>
      </trkpt>
      <trkpt lat="45.54797" lon="6.37602">
        <ele>1489</ele>
        <time>2019-02-16T10:08:38Z</time>
      </trkpt>
      <trkpt lat="45.54791" lon="6.37628">
        <ele>1493</ele>
        <time>2019-02-16T10:09:11Z</time>
      </trkpt>
      <trkpt lat="45.54788" lon="6.37634">
        <ele>1494</ele>
        <time>2019-02-16T10:09:17Z</time>
      </trkpt>
      <trkpt lat="45.54785" lon="6.37643">
        <ele>1497</ele>
        <time>2019-02-16T10:09:43Z</time>
      </trkpt>
      <trkpt lat="45.54786" lon="6.37651">
        <ele>1498</ele>
        <time>2019-02-16T10:09:55Z</time>
      </trkpt>
      <trkpt lat="45.54787" lon="6.37667">
        <ele>1500</ele>
        <time>2019-02-16T10:10:04Z</time>
      </trkpt>
      <trkpt lat="45.5479" lon="6.37672">
        <ele>1501</ele>
        <time>2019-02-16T10:10:12Z</time>
      </trkpt>
      <trkpt lat="45.54795" lon="6.37678">
        <ele>1502</ele>
        <time>2019-02-16T10:10:24Z</time>
      </trkpt>
      <trkpt lat="45.54796" lon="6.37686">
        <ele>1503</ele>
        <time>2019-02-16T10:10:36Z</time>
      </trkpt>
      <trkpt lat="45.54801" lon="6.377">
        <ele>1506</ele>
        <time>2019-02-16T10:11:06Z</time>
      </trkpt>
      <trkpt lat="45.54807" lon="6.37702">
        <ele>1508</ele>
        <time>2019-02-16T10:11:18Z</time>
      </trkpt>
      <trkpt lat="45.54808" lon="6.37711">
        <ele>1511</ele>
        <time>2019-02-16T10:11:36Z</time>
      </trkpt>
      <trkpt lat="45.54815" lon="6.37717">
        <ele>1513</ele>
        <time>2019-02-16T10:11:54Z</time>
      </trkpt>
      <trkpt lat="45.54816" lon="6.37726">
        <ele>1515</ele>
        <time>2019-02-16T10:12:07Z</time>
      </trkpt>
      <trkpt lat="45.54819" lon="6.37734">
        <ele>1517</ele>
        <time>2019-02-16T10:12:25Z</time>
      </trkpt>
      <trkpt lat="45.54824" lon="6.37742">
        <ele>1519</ele>
        <time>2019-02-16T10:12:43Z</time>
      </trkpt>
      <trkpt lat="45.54831" lon="6.37746">
        <ele>1522</ele>
        <time>2019-02-16T10:13:03Z</time>
      </trkpt>
      <trkpt lat="45.54837" lon="6.37763">
        <ele>1526</ele>
        <time>2019-02-16T10:13:37Z</time>
      </trkpt>
      <trkpt lat="45.54841" lon="6.3777">
        <ele>1528</ele>
        <time>2019-02-16T10:13:55Z</time>
      </trkpt>
      <trkpt lat="45.54843" lon="6.37779">
        <ele>1530</ele>
        <time>2019-02-16T10:14:19Z</time>
      </trkpt>
      <trkpt lat="45.54842" lon="6.37788">
        <ele>1532</ele>
        <time>2019-02-16T10:14:32Z</time>
      </trkpt>
      <trkpt lat="45.54848" lon="6.37798">
        <ele>1532</ele>
        <time>2019-02-16T10:14:44Z</time>
      </trkpt>
      <trkpt lat="45.54852" lon="6.37805">
        <ele>1533</ele>
        <time>2019-02-16T10:14:53Z</time>
      </trkpt>
      <trkpt lat="45.54866" lon="6.37814">
        <ele>1536</ele>
        <time>2019-02-16T10:15:24Z</time>
      </trkpt>
      <trkpt lat="45.54872" lon="6.37817">
        <ele>1538</ele>
        <time>2019-02-16T10:15:37Z</time>
      </trkpt>
      <trkpt lat="45.54871" lon="6.37827">
        <ele>1538</ele>
        <time>2019-02-16T10:15:44Z</time>
      </trkpt>
      <trkpt lat="45.54876" lon="6.37836">
        <ele>1540</ele>
        <time>2019-02-16T10:16:21Z</time>
      </trkpt>
      <trkpt lat="45.54881" lon="6.37841">
        <ele>1541</ele>
        <time>2019-02-16T10:16:27Z</time>
      </trkpt>
      <trkpt lat="45.54886" lon="6.37848">
        <ele>1543</ele>
        <time>2019-02-16T10:16:53Z</time>
      </trkpt>
      <trkpt lat="45.5489" lon="6.37854">
        <ele>1544</ele>
        <time>2019-02-16T10:17:05Z</time>
      </trkpt>
      <trkpt lat="45.54892" lon="6.37862">
        <ele>1544</ele>
        <time>2019-02-16T10:17:11Z</time>
      </trkpt>
      <trkpt lat="45.54897" lon="6.3788">
        <ele>1545</ele>
        <time>2019-02-16T10:17:37Z</time>
      </trkpt>
      <trkpt lat="45.54899" lon="6.37894">
        <ele>1545</ele>
        <time>2019-02-16T10:17:52Z</time>
      </trkpt>
      <trkpt lat="45.54911" lon="6.37888">
        <ele>1547</ele>
        <time>2019-02-16T10:18:10Z</time>
      </trkpt>
      <trkpt lat="45.54915" lon="6.37894">
        <ele>1548</ele>
        <time>2019-02-16T10:18:18Z</time>
      </trkpt>
      <trkpt lat="45.54921" lon="6.37896">
        <ele>1549</ele>
        <time>2019-02-16T10:18:24Z</time>
      </trkpt>
      <trkpt lat="45.54926" lon="6.37904">
        <ele>1551</ele>
        <time>2019-02-16T10:18:43Z</time>
      </trkpt>
      <trkpt lat="45.54934" lon="6.37917">
        <ele>1552</ele>
        <time>2019-02-16T10:18:56Z</time>
      </trkpt>
      <trkpt lat="45.54935" lon="6.37929">
        <ele>1553</ele>
        <time>2019-02-16T10:19:10Z</time>
      </trkpt>
      <trkpt lat="45.54942" lon="6.37934">
        <ele>1555</ele>
        <time>2019-02-16T10:19:34Z</time>
      </trkpt>
      <trkpt lat="45.54947" lon="6.37938">
        <ele>1555</ele>
        <time>2019-02-16T10:19:40Z</time>
      </trkpt>
      <trkpt lat="45.54951" lon="6.37946">
        <ele>1556</ele>
        <time>2019-02-16T10:19:58Z</time>
      </trkpt>
      <trkpt lat="45.54958" lon="6.37945">
        <ele>1557</ele>
        <time>2019-02-16T10:20:07Z</time>
      </trkpt>
      <trkpt lat="45.54959" lon="6.37955">
        <ele>1558</ele>
        <time>2019-02-16T10:20:30Z</time>
      </trkpt>
      <trkpt lat="45.54969" lon="6.3796">
        <ele>1560</ele>
        <time>2019-02-16T10:20:43Z</time>
      </trkpt>
      <trkpt lat="45.54982" lon="6.37971">
        <ele>1562</ele>
        <time>2019-02-16T10:21:06Z</time>
      </trkpt>
      <trkpt lat="45.54992" lon="6.37971">
        <ele>1563</ele>
        <time>2019-02-16T10:21:24Z</time>
      </trkpt>
      <trkpt lat="45.54998" lon="6.37975">
        <ele>1566</ele>
        <time>2019-02-16T10:21:50Z</time>
      </trkpt>
      <trkpt lat="45.55004" lon="6.37978">
        <ele>1566</ele>
        <time>2019-02-16T10:22:08Z</time>
      </trkpt>
      <trkpt lat="45.55015" lon="6.37992">
        <ele>1570</ele>
        <time>2019-02-16T10:22:40Z</time>
      </trkpt>
      <trkpt lat="45.55032" lon="6.37994">
        <ele>1574</ele>
        <time>2019-02-16T10:23:16Z</time>
      </trkpt>
      <trkpt lat="45.55036" lon="6.37995">
        <ele>1576</ele>
        <time>2019-02-16T10:23:28Z</time>
      </trkpt>
      <trkpt lat="45.5505" lon="6.38002">
        <ele>1581</ele>
        <time>2019-02-16T10:24:05Z</time>
      </trkpt>
      <trkpt lat="45.55065" lon="6.37997">
        <ele>1584</ele>
        <time>2019-02-16T10:24:44Z</time>
      </trkpt>
      <trkpt lat="45.55071" lon="6.38002">
        <ele>1585</ele>
        <time>2019-02-16T10:24:49Z</time>
      </trkpt>
      <trkpt lat="45.55086" lon="6.38003">
        <ele>1591</ele>
        <time>2019-02-16T10:25:51Z</time>
      </trkpt>
      <trkpt lat="45.55093" lon="6.38001">
        <ele>1593</ele>
        <time>2019-02-16T10:26:03Z</time>
      </trkpt>
      <trkpt lat="45.55098" lon="6.38007">
        <ele>1595</ele>
        <time>2019-02-16T10:26:13Z</time>
      </trkpt>
      <trkpt lat="45.55101" lon="6.38009">
        <ele>1595</ele>
        <time>2019-02-16T10:26:17Z</time>
      </trkpt>
      <trkpt lat="45.55106" lon="6.38011">
        <ele>1597</ele>
        <time>2019-02-16T10:26:30Z</time>
      </trkpt>
      <trkpt lat="45.55112" lon="6.3801">
        <ele>1600</ele>
        <time>2019-02-16T10:26:54Z</time>
      </trkpt>
      <trkpt lat="45.55114" lon="6.38015">
        <ele>1601</ele>
        <time>2019-02-16T10:26:57Z</time>
      </trkpt>
      <trkpt lat="45.55119" lon="6.38015">
        <ele>1602</ele>
        <time>2019-02-16T10:27:13Z</time>
      </trkpt>
      <trkpt lat="45.55125" lon="6.38014">
        <ele>1604</ele>
        <time>2019-02-16T10:27:24Z</time>
      </trkpt>
      <trkpt lat="45.55128" lon="6.38012">
        <ele>1605</ele>
        <time>2019-02-16T10:27:35Z</time>
      </trkpt>
      <trkpt lat="45.5512" lon="6.37996">
        <ele>1608</ele>
        <time>2019-02-16T10:28:16Z</time>
      </trkpt>
      <trkpt lat="45.55125" lon="6.38">
        <ele>1611</ele>
        <time>2019-02-16T10:28:52Z</time>
      </trkpt>
      <trkpt lat="45.55131" lon="6.37998">
        <ele>1612</ele>
        <time>2019-02-16T10:29:10Z</time>
      </trkpt>
      <trkpt lat="45.55128" lon="6.37996">
        <ele>1615</ele>
        <time>2019-02-16T10:29:51Z</time>
      </trkpt>
      <trkpt lat="45.55125" lon="6.37987">
        <ele>1616</ele>
        <time>2019-02-16T10:30:01Z</time>
      </trkpt>
      <trkpt lat="45.55131" lon="6.3799">
        <ele>1617</ele>
        <time>2019-02-16T10:30:26Z</time>
      </trkpt>
      <trkpt lat="45.55135" lon="6.37984">
        <ele>1621</ele>
        <time>2019-02-16T10:31:03Z</time>
      </trkpt>
      <trkpt lat="45.55138" lon="6.37975">
        <ele>1623</ele>
        <time>2019-02-16T10:31:15Z</time>
      </trkpt>
      <trkpt lat="45.55141" lon="6.37969">
        <ele>1628</ele>
        <time>2019-02-16T10:33:02Z</time>
      </trkpt>
      <trkpt lat="45.55146" lon="6.37969">
        <ele>1628</ele>
        <time>2019-02-16T10:33:05Z</time>
      </trkpt>
      <trkpt lat="45.55149" lon="6.37966">
        <ele>1629</ele>
        <time>2019-02-16T10:33:15Z</time>
      </trkpt>
      <trkpt lat="45.55147" lon="6.37959">
        <ele>1631</ele>
        <time>2019-02-16T10:33:27Z</time>
      </trkpt>
      <trkpt lat="45.55147" lon="6.37952">
        <ele>1633</ele>
        <time>2019-02-16T10:33:39Z</time>
      </trkpt>
      <trkpt lat="45.55156" lon="6.37954">
        <ele>1634</ele>
        <time>2019-02-16T10:33:55Z</time>
      </trkpt>
      <trkpt lat="45.55166" lon="6.37953">
        <ele>1636</ele>
        <time>2019-02-16T10:34:17Z</time>
      </trkpt>
      <trkpt lat="45.55169" lon="6.37956">
        <ele>1637</ele>
        <time>2019-02-16T10:34:27Z</time>
      </trkpt>
      <trkpt lat="45.55173" lon="6.37956">
        <ele>1638</ele>
        <time>2019-02-16T10:34:37Z</time>
      </trkpt>
      <trkpt lat="45.55177" lon="6.37954">
        <ele>1640</ele>
        <time>2019-02-16T10:34:49Z</time>
      </trkpt>
      <trkpt lat="45.5518" lon="6.3795">
        <ele>1641</ele>
        <time>2019-02-16T10:35:01Z</time>
      </trkpt>
      <trkpt lat="45.5518" lon="6.37944">
        <ele>1642</ele>
        <time>2019-02-16T10:35:19Z</time>
      </trkpt>
      <trkpt lat="45.55175" lon="6.37934">
        <ele>1644</ele>
        <time>2019-02-16T10:35:37Z</time>
      </trkpt>
      <trkpt lat="45.55181" lon="6.37932">
        <ele>1646</ele>
        <time>2019-02-16T10:35:51Z</time>
      </trkpt>
      <trkpt lat="45.55188" lon="6.37932">
        <ele>1647</ele>
        <time>2019-02-16T10:36:04Z</time>
      </trkpt>
      <trkpt lat="45.55191" lon="6.37933">
        <ele>1648</ele>
        <time>2019-02-16T10:36:16Z</time>
      </trkpt>
      <trkpt lat="45.55196" lon="6.37935">
        <ele>1649</ele>
        <time>2019-02-16T10:36:28Z</time>
      </trkpt>
      <trkpt lat="45.55197" lon="6.37928">
        <ele>1650</ele>
        <time>2019-02-16T10:36:46Z</time>
      </trkpt>
      <trkpt lat="45.55195" lon="6.37923">
        <ele>1650</ele>
        <time>2019-02-16T10:36:50Z</time>
      </trkpt>
      <trkpt lat="45.55191" lon="6.3792">
        <ele>1651</ele>
        <time>2019-02-16T10:37:04Z</time>
      </trkpt>
      <trkpt lat="45.55191" lon="6.37917">
        <ele>1653</ele>
        <time>2019-02-16T10:37:40Z</time>
      </trkpt>
      <trkpt lat="45.55196" lon="6.37916">
        <ele>1654</ele>
        <time>2019-02-16T10:38:04Z</time>
      </trkpt>
      <trkpt lat="45.55202" lon="6.37916">
        <ele>1655</ele>
        <time>2019-02-16T10:38:14Z</time>
      </trkpt>
      <trkpt lat="45.55199" lon="6.3791">
        <ele>1656</ele>
        <time>2019-02-16T10:38:26Z</time>
      </trkpt>
      <trkpt lat="45.55191" lon="6.37905">
        <ele>1657</ele>
        <time>2019-02-16T10:38:40Z</time>
      </trkpt>
      <trkpt lat="45.55189" lon="6.37901">
        <ele>1658</ele>
        <time>2019-02-16T10:38:52Z</time>
      </trkpt>
      <trkpt lat="45.55185" lon="6.37903">
        <ele>1657</ele>
        <time>2019-02-16T10:39:23Z</time>
      </trkpt>
      <trkpt lat="45.55181" lon="6.37895">
        <ele>1658</ele>
        <time>2019-02-16T10:39:34Z</time>
      </trkpt>
      <trkpt lat="45.55186" lon="6.37894">
        <ele>1659</ele>
        <time>2019-02-16T10:39:44Z</time>
      </trkpt>
      <trkpt lat="45.55194" lon="6.37896">
        <ele>1660</ele>
        <time>2019-02-16T10:40:00Z</time>
      </trkpt>
      <trkpt lat="45.55199" lon="6.37897">
        <ele>1662</ele>
        <time>2019-02-16T10:40:19Z</time>
      </trkpt>
      <trkpt lat="45.55206" lon="6.37892">
        <ele>1663</ele>
        <time>2019-02-16T10:40:54Z</time>
      </trkpt>
      <trkpt lat="45.5521" lon="6.3789">
        <ele>1664</ele>
        <time>2019-02-16T10:41:02Z</time>
      </trkpt>
      <trkpt lat="45.55218" lon="6.37889">
        <ele>1666</ele>
        <time>2019-02-16T10:41:21Z</time>
      </trkpt>
      <trkpt lat="45.55223" lon="6.37886">
        <ele>1667</ele>
        <time>2019-02-16T10:41:32Z</time>
      </trkpt>
      <trkpt lat="45.5523" lon="6.3788">
        <ele>1670</ele>
        <time>2019-02-16T10:41:56Z</time>
      </trkpt>
      <trkpt lat="45.55235" lon="6.37872">
        <ele>1672</ele>
        <time>2019-02-16T10:42:19Z</time>
      </trkpt>
      <trkpt lat="45.5523" lon="6.37867">
        <ele>1673</ele>
        <time>2019-02-16T10:42:37Z</time>
      </trkpt>
      <trkpt lat="45.55226" lon="6.3786">
        <ele>1675</ele>
        <time>2019-02-16T10:42:46Z</time>
      </trkpt>
      <trkpt lat="45.55223" lon="6.37858">
        <ele>1676</ele>
        <time>2019-02-16T10:42:56Z</time>
      </trkpt>
      <trkpt lat="45.55222" lon="6.37851">
        <ele>1676</ele>
        <time>2019-02-16T10:43:00Z</time>
      </trkpt>
      <trkpt lat="45.55215" lon="6.37849">
        <ele>1677</ele>
        <time>2019-02-16T10:43:08Z</time>
      </trkpt>
      <trkpt lat="45.55208" lon="6.37845">
        <ele>1679</ele>
        <time>2019-02-16T10:43:27Z</time>
      </trkpt>
      <trkpt lat="45.55201" lon="6.37841">
        <ele>1681</ele>
        <time>2019-02-16T10:43:46Z</time>
      </trkpt>
      <trkpt lat="45.55195" lon="6.37834">
        <ele>1682</ele>
        <time>2019-02-16T10:44:02Z</time>
      </trkpt>
      <trkpt lat="45.55188" lon="6.37832">
        <ele>1684</ele>
        <time>2019-02-16T10:44:14Z</time>
      </trkpt>
      <trkpt lat="45.55185" lon="6.37829">
        <ele>1684</ele>
        <time>2019-02-16T10:44:20Z</time>
      </trkpt>
      <trkpt lat="45.5518" lon="6.37825">
        <ele>1686</ele>
        <time>2019-02-16T10:44:32Z</time>
      </trkpt>
      <trkpt lat="45.55176" lon="6.37825">
        <ele>1686</ele>
        <time>2019-02-16T10:44:37Z</time>
      </trkpt>
      <trkpt lat="45.55171" lon="6.37814">
        <ele>1688</ele>
        <time>2019-02-16T10:44:55Z</time>
      </trkpt>
      <trkpt lat="45.55168" lon="6.37809">
        <ele>1689</ele>
        <time>2019-02-16T10:45:07Z</time>
      </trkpt>
      <trkpt lat="45.55165" lon="6.37805">
        <ele>1691</ele>
        <time>2019-02-16T10:45:14Z</time>
      </trkpt>
      <trkpt lat="45.55162" lon="6.37801">
        <ele>1692</ele>
        <time>2019-02-16T10:45:26Z</time>
      </trkpt>
      <trkpt lat="45.55159" lon="6.37789">
        <ele>1694</ele>
        <time>2019-02-16T10:45:45Z</time>
      </trkpt>
      <trkpt lat="45.55159" lon="6.37783">
        <ele>1695</ele>
        <time>2019-02-16T10:45:53Z</time>
      </trkpt>
      <trkpt lat="45.55161" lon="6.37775">
        <ele>1696</ele>
        <time>2019-02-16T10:46:05Z</time>
      </trkpt>
      <trkpt lat="45.55157" lon="6.3776">
        <ele>1698</ele>
        <time>2019-02-16T10:46:36Z</time>
      </trkpt>
      <trkpt lat="45.55155" lon="6.37756">
        <ele>1698</ele>
        <time>2019-02-16T10:46:41Z</time>
      </trkpt>
      <trkpt lat="45.55151" lon="6.37753">
        <ele>1699</ele>
        <time>2019-02-16T10:46:45Z</time>
      </trkpt>
      <trkpt lat="45.5515" lon="6.37746">
        <ele>1700</ele>
        <time>2019-02-16T10:46:53Z</time>
      </trkpt>
      <trkpt lat="45.55149" lon="6.3774">
        <ele>1701</ele>
        <time>2019-02-16T10:47:05Z</time>
      </trkpt>
      <trkpt lat="45.55157" lon="6.37715">
        <ele>1705</ele>
        <time>2019-02-16T10:48:04Z</time>
      </trkpt>
      <trkpt lat="45.55158" lon="6.37709">
        <ele>1706</ele>
        <time>2019-02-16T10:48:18Z</time>
      </trkpt>
      <trkpt lat="45.55161" lon="6.37703">
        <ele>1708</ele>
        <time>2019-02-16T10:48:32Z</time>
      </trkpt>
      <trkpt lat="45.5516" lon="6.37698">
        <ele>1709</ele>
        <time>2019-02-16T10:48:40Z</time>
      </trkpt>
      <trkpt lat="45.55158" lon="6.3769">
        <ele>1710</ele>
        <time>2019-02-16T10:48:50Z</time>
      </trkpt>
      <trkpt lat="45.55156" lon="6.37668">
        <ele>1715</ele>
        <time>2019-02-16T10:49:30Z</time>
      </trkpt>
      <trkpt lat="45.55159" lon="6.37662">
        <ele>1716</ele>
        <time>2019-02-16T10:49:49Z</time>
      </trkpt>
      <trkpt lat="45.55169" lon="6.37663">
        <ele>1719</ele>
        <time>2019-02-16T10:50:06Z</time>
      </trkpt>
      <trkpt lat="45.55174" lon="6.3766">
        <ele>1721</ele>
        <time>2019-02-16T10:50:20Z</time>
      </trkpt>
      <trkpt lat="45.55178" lon="6.37658">
        <ele>1723</ele>
        <time>2019-02-16T10:50:38Z</time>
      </trkpt>
      <trkpt lat="45.55187" lon="6.37663">
        <ele>1725</ele>
        <time>2019-02-16T10:50:55Z</time>
      </trkpt>
      <trkpt lat="45.5519" lon="6.37657">
        <ele>1726</ele>
        <time>2019-02-16T10:51:03Z</time>
      </trkpt>
      <trkpt lat="45.55204" lon="6.37651">
        <ele>1732</ele>
        <time>2019-02-16T10:56:04Z</time>
      </trkpt>
      <trkpt lat="45.55208" lon="6.37649">
        <ele>1733</ele>
        <time>2019-02-16T10:56:17Z</time>
      </trkpt>
      <trkpt lat="45.55217" lon="6.37642">
        <ele>1736</ele>
        <time>2019-02-16T10:56:41Z</time>
      </trkpt>
      <trkpt lat="45.55226" lon="6.37637">
        <ele>1739</ele>
        <time>2019-02-16T10:57:05Z</time>
      </trkpt>
      <trkpt lat="45.55232" lon="6.37635">
        <ele>1740</ele>
        <time>2019-02-16T10:57:23Z</time>
      </trkpt>
      <trkpt lat="45.55234" lon="6.37631">
        <ele>1742</ele>
        <time>2019-02-16T10:57:35Z</time>
      </trkpt>
      <trkpt lat="45.55245" lon="6.37626">
        <ele>1745</ele>
        <time>2019-02-16T10:57:59Z</time>
      </trkpt>
      <trkpt lat="45.55249" lon="6.37625">
        <ele>1747</ele>
        <time>2019-02-16T10:58:11Z</time>
      </trkpt>
      <trkpt lat="45.55251" lon="6.37618">
        <ele>1748</ele>
        <time>2019-02-16T10:58:23Z</time>
      </trkpt>
      <trkpt lat="45.55254" lon="6.37614">
        <ele>1749</ele>
        <time>2019-02-16T10:58:35Z</time>
      </trkpt>
      <trkpt lat="45.55269" lon="6.37608">
        <ele>1754</ele>
        <time>2019-02-16T10:59:12Z</time>
      </trkpt>
      <trkpt lat="45.55274" lon="6.37604">
        <ele>1755</ele>
        <time>2019-02-16T10:59:24Z</time>
      </trkpt>
      <trkpt lat="45.55278" lon="6.37601">
        <ele>1756</ele>
        <time>2019-02-16T10:59:36Z</time>
      </trkpt>
      <trkpt lat="45.55282" lon="6.37597">
        <ele>1757</ele>
        <time>2019-02-16T10:59:47Z</time>
      </trkpt>
      <trkpt lat="45.55288" lon="6.3759">
        <ele>1759</ele>
        <time>2019-02-16T11:00:01Z</time>
      </trkpt>
      <trkpt lat="45.55292" lon="6.37584">
        <ele>1761</ele>
        <time>2019-02-16T11:00:19Z</time>
      </trkpt>
      <trkpt lat="45.55297" lon="6.37581">
        <ele>1762</ele>
        <time>2019-02-16T11:00:31Z</time>
      </trkpt>
      <trkpt lat="45.55299" lon="6.37571">
        <ele>1764</ele>
        <time>2019-02-16T11:00:49Z</time>
      </trkpt>
      <trkpt lat="45.55306" lon="6.37567">
        <ele>1766</ele>
        <time>2019-02-16T11:01:00Z</time>
      </trkpt>
      <trkpt lat="45.55312" lon="6.37563">
        <ele>1768</ele>
        <time>2019-02-16T11:01:20Z</time>
      </trkpt>
      <trkpt lat="45.55317" lon="6.37558">
        <ele>1770</ele>
        <time>2019-02-16T11:01:44Z</time>
      </trkpt>
      <trkpt lat="45.55321" lon="6.37555">
        <ele>1771</ele>
        <time>2019-02-16T11:01:51Z</time>
      </trkpt>
      <trkpt lat="45.55326" lon="6.37551">
        <ele>1772</ele>
        <time>2019-02-16T11:02:06Z</time>
      </trkpt>
      <trkpt lat="45.55333" lon="6.3755">
        <ele>1775</ele>
        <time>2019-02-16T11:02:24Z</time>
      </trkpt>
      <trkpt lat="45.55344" lon="6.37551">
        <ele>1778</ele>
        <time>2019-02-16T11:02:54Z</time>
      </trkpt>
      <trkpt lat="45.55352" lon="6.37549">
        <ele>1781</ele>
        <time>2019-02-16T11:03:20Z</time>
      </trkpt>
      <trkpt lat="45.55357" lon="6.37546">
        <ele>1783</ele>
        <time>2019-02-16T11:03:34Z</time>
      </trkpt>
      <trkpt lat="45.55356" lon="6.3754">
        <ele>1785</ele>
        <time>2019-02-16T11:03:46Z</time>
      </trkpt>
      <trkpt lat="45.55361" lon="6.37536">
        <ele>1787</ele>
        <time>2019-02-16T11:03:58Z</time>
      </trkpt>
      <trkpt lat="45.55365" lon="6.37538">
        <ele>1788</ele>
        <time>2019-02-16T11:04:04Z</time>
      </trkpt>
      <trkpt lat="45.55369" lon="6.37531">
        <ele>1790</ele>
        <time>2019-02-16T11:04:16Z</time>
      </trkpt>
      <trkpt lat="45.55375" lon="6.37529">
        <ele>1792</ele>
        <time>2019-02-16T11:04:28Z</time>
      </trkpt>
      <trkpt lat="45.55384" lon="6.37515">
        <ele>1796</ele>
        <time>2019-02-16T11:04:58Z</time>
      </trkpt>
      <trkpt lat="45.55384" lon="6.37502">
        <ele>1799</ele>
        <time>2019-02-16T11:05:18Z</time>
      </trkpt>
      <trkpt lat="45.55385" lon="6.37493">
        <ele>1800</ele>
        <time>2019-02-16T11:05:30Z</time>
      </trkpt>
      <trkpt lat="45.55503" lon="6.37273">
        <ele>1885.4</ele>
        <time>2019-02-16T11:19:08Z</time>
      </trkpt>
      <trkpt lat="45.5554" lon="6.37264">
        <ele>1742</ele>
        <time>2019-02-16T11:26:14Z</time>
      </trkpt>
      <trkpt lat="45.55569" lon="6.37222">
        <ele>1868</ele>
        <time>2019-02-16T11:26:20Z</time>
      </trkpt>
    </trkseg>
  </trk>
  <rte>
    <name><![CDATA[4 avr. 2019 à 23:11:12]]></name>
    <cmt><![CDATA[4 avr. 2019 à 23:11:12]]></cmt>
    <desc><![CDATA[{DC1}Heure de fin	: 
Durée totale	: 0h00:00
Moyenne globale	: -
Pente moyenne	: 0.00 %
Aire incluse	: 7.4932 ha
Détails par segments
distance  | durée    | vit.moy. | vit.max. | déniv. + | déniv -
   km     | hh:mn:ss |   km/h   |   km/h   |    m     |    m
     0.81 | 00:00:00 |      0.0 |      0.0 |        0 |        0{DC2}]]></desc>
      <rtept lat="45.60077" lon="6.18221">
        <ele>1608.6</ele>
      </rtept>
      <rtept lat="45.59468" lon="6.1822">
        <ele>1760.9</ele>
      </rtept>
      <rtept lat="45.59468" lon="6.1822">
        <ele>1760.9</ele>
      </rtept>
    </rte>
  <rte>
    <name><![CDATA[10 févr. 2019 à 15:16:12]]></name>
    <cmt><![CDATA[10 févr. 2019 à 15:16:12]]></cmt>
    <desc><![CDATA[{DC1}Heure de fin	: 00:09:21
Durée totale	: -17690439h43:48
Moyenne globale	: -
Pente moyenne	: 7.00 %
Aire incluse	: 221.0936 ha
Détails par segments
distance  | durée    | vit.moy. | vit.max. | déniv. + | déniv -
   km     | hh:mn:ss |   km/h   |   km/h   |    m     |    m
     7.48 | 00:00:00 |      0.0 |      0.0 |        0 |        0{DC2}]]></desc>
      <rtept lat="45.55203" lon="5.93805">
        <ele>376</ele>
      </rtept>
      <rtept lat="45.55177" lon="5.93873">
        <ele>369</ele>
      </rtept>
      <rtept lat="45.55176" lon="5.93942">
        <ele>367</ele>
      </rtept>
      <rtept lat="45.55105" lon="5.93942">
        <ele>367</ele>
      </rtept>
      <rtept lat="45.54993" lon="5.93908">
        <ele>371</ele>
      </rtept>
      <rtept lat="45.54929" lon="5.94099">
        <ele>370</ele>
      </rtept>
      <rtept lat="45.54908" lon="5.94204">
        <ele>367</ele>
      </rtept>
      <rtept lat="45.54991" lon="5.94287">
        <ele>365</ele>
      </rtept>
      <rtept lat="45.5506" lon="5.94384">
        <ele>361</ele>
      </rtept>
      <rtept lat="45.55147" lon="5.94384">
        <ele>357</ele>
      </rtept>
      <rtept lat="45.55129" lon="5.94607">
        <ele>358</ele>
      </rtept>
      <rtept lat="45.55029" lon="5.94809">
        <ele>355</ele>
      </rtept>
      <rtept lat="45.54884" lon="5.94886">
        <ele>346</ele>
      </rtept>
      <rtept lat="45.5477" lon="5.94931">
        <ele>342</ele>
      </rtept>
      <rtept lat="45.5468" lon="5.95004">
        <ele>339</ele>
      </rtept>
      <rtept lat="45.54596" lon="5.95133">
        <ele>340</ele>
      </rtept>
      <rtept lat="45.54446" lon="5.95195">
        <ele>343</ele>
      </rtept>
      <rtept lat="45.543" lon="5.95262">
        <ele>344</ele>
      </rtept>
      <rtept lat="45.54156" lon="5.95212">
        <ele>337</ele>
      </rtept>
      <rtept lat="45.54041" lon="5.95204">
        <ele>338</ele>
      </rtept>
      <rtept lat="45.53917" lon="5.95141">
        <ele>343</ele>
      </rtept>
      <rtept lat="45.53844" lon="5.95135">
        <ele>347</ele>
      </rtept>
      <rtept lat="45.53765" lon="5.9503">
        <ele>349</ele>
      </rtept>
      <rtept lat="45.5381" lon="5.94993">
        <ele>352</ele>
      </rtept>
      <rtept lat="45.53781" lon="5.94901">
        <ele>358</ele>
      </rtept>
      <rtept lat="45.53711" lon="5.94845">
        <ele>365</ele>
      </rtept>
      <rtept lat="45.53702" lon="5.94764">
        <ele>369</ele>
      </rtept>
      <rtept lat="45.53817" lon="5.94807">
        <ele>376</ele>
      </rtept>
      <rtept lat="45.53865" lon="5.94633">
        <ele>389</ele>
      </rtept>
      <rtept lat="45.53778" lon="5.94491">
        <ele>408</ele>
      </rtept>
      <rtept lat="45.53757" lon="5.94371">
        <ele>425</ele>
      </rtept>
      <rtept lat="45.53775" lon="5.94279">
        <ele>434</ele>
      </rtept>
      <rtept lat="45.53726" lon="5.94227">
        <ele>442</ele>
      </rtept>
      <rtept lat="45.53572" lon="5.94146">
        <ele>468</ele>
      </rtept>
      <rtept lat="45.53664" lon="5.94039">
        <ele>483</ele>
      </rtept>
      <rtept lat="45.53532" lon="5.93983">
        <ele>505</ele>
      </rtept>
      <rtept lat="45.53416" lon="5.93985">
        <ele>516</ele>
      </rtept>
      <rtept lat="45.5355" lon="5.93869">
        <ele>532</ele>
      </rtept>
      <rtept lat="45.5359" lon="5.93845">
        <ele>537</ele>
      </rtept>
      <rtept lat="45.5355" lon="5.93802">
        <ele>544</ele>
      </rtept>
      <rtept lat="45.53724" lon="5.93554">
        <ele>587</ele>
      </rtept>
      <rtept lat="45.53691" lon="5.93339">
        <ele>592</ele>
      </rtept>
      <rtept lat="45.5376" lon="5.93178">
        <ele>575</ele>
      </rtept>
      <rtept lat="45.53843" lon="5.93069">
        <ele>555</ele>
      </rtept>
      <rtept lat="45.53939" lon="5.93157">
        <ele>541</ele>
      </rtept>
      <rtept lat="45.54068" lon="5.93234">
        <ele>522</ele>
      </rtept>
      <rtept lat="45.54219" lon="5.93247">
        <ele>514</ele>
      </rtept>
      <rtept lat="45.54355" lon="5.93232">
        <ele>512</ele>
      </rtept>
      <rtept lat="45.54489" lon="5.9326">
        <ele>508</ele>
      </rtept>
      <rtept lat="45.54636" lon="5.93249">
        <ele>510</ele>
      </rtept>
      <rtept lat="45.54758" lon="5.93249">
        <ele>510</ele>
      </rtept>
      <rtept lat="45.54818" lon="5.93298">
        <ele>507</ele>
      </rtept>
      <rtept lat="45.54796" lon="5.93418">
        <ele>496</ele>
      </rtept>
      <rtept lat="45.5491" lon="5.93433">
        <ele>483</ele>
      </rtept>
      <rtept lat="45.55126" lon="5.9341">
        <ele>463</ele>
      </rtept>
      <rtept lat="45.55256" lon="5.93453">
        <ele>444</ele>
      </rtept>
      <rtept lat="45.55329" lon="5.93558">
        <ele>430</ele>
      </rtept>
      <rtept lat="45.55222" lon="5.93642">
        <ele>415</ele>
      </rtept>
      <rtept lat="45.55195" lon="5.93811">
        <ele>375</ele>
      </rtept>
    </rte>
  <rte>
    <name><![CDATA[10 févr. 2019 à 15:15:48]]></name>
    <cmt><![CDATA[10 févr. 2019 à 15:15:48]]></cmt>
    <desc><![CDATA[{DC1}Heure de fin	: 00:09:21
Durée totale	: -17690439h44:12
Moyenne globale	: -
Pente moyenne	: nan %
Aire incluse	: 0.0000 ha
Détails par segments
distance  | durée    | vit.moy. | vit.max. | déniv. + | déniv -
   km     | hh:mn:ss |   km/h   |   km/h   |    m     |    m
     0.00 | 00:00:00 |      0.0 |      0.0 |        0 |        0{DC2}]]></desc>
      <rtept lat="45.5175" lon="5.93483">
        <ele>732.3</ele>
      </rtept>
    </rte>
  <rte>
    <name><![CDATA[10 févr. 2019 à 15:06:08]]></name>
    <cmt><![CDATA[10 févr. 2019 à 15:06:08]]></cmt>
    <desc><![CDATA[{DC1}Heure de fin	: 
Durée totale	: 0h00:00
Moyenne globale	: -
Pente moyenne	: 8.03 %
Aire incluse	: 204.0794 ha
Détails par segments
distance  | durée    | vit.moy. | vit.max. | déniv. + | déniv -
   km     | hh:mn:ss |   km/h   |   km/h   |    m     |    m
    12.88 | 00:00:00 |      0.0 |      0.0 |        0 |        0{DC2}]]></desc>
      <rtept lat="45.5509" lon="5.9394">
        <ele>368</ele>
      </rtept>
      <rtept lat="45.55217" lon="5.93791">
        <ele>377</ele>
      </rtept>
    </rte>
  <rte>
    <name><![CDATA[10 févr. 2019 à 14:22:06]]></name>
    <cmt><![CDATA[10 févr. 2019 à 14:22:06]]></cmt>
    <desc><![CDATA[{DC1}Heure de fin	: 00:09:21
Durée totale	: -17690438h37:54
Moyenne globale	: -
Pente moyenne	: 5.62 %
Aire incluse	: 5.7967 ha
Détails par segments
distance  | durée    | vit.moy. | vit.max. | déniv. + | déniv -
   km     | hh:mn:ss |   km/h   |   km/h   |    m     |    m
     3.30 | 00:00:00 |      0.0 |      0.0 |        0 |        0{DC2}]]></desc>
      <rtept lat="45.55169" lon="5.93089">
        <ele>415</ele>
      </rtept>
      <rtept lat="45.5518" lon="5.93905">
        <ele>366</ele>
      </rtept>
    </rte>
  <rte>
    <name><![CDATA[10 févr. 2019 à 09:50:45]]></name>
    <cmt><![CDATA[10 févr. 2019 à 09:50:45]]></cmt>
    <desc><![CDATA[{DC1}Heure de fin	: 00:09:21
Durée totale	: -17690433h09:14
Moyenne globale	: -
Pente moyenne	: 0.00 %
Aire incluse	: 50.7119 ha
Détails par segments
distance  | durée    | vit.moy. | vit.max. | déniv. + | déniv -
   km     | hh:mn:ss |   km/h   |   km/h   |    m     |    m
     4.33 | 00:00:00 |      0.0 |      0.0 |        0 |        0{DC2}]]></desc>
      <rtept lat="45.5503" lon="5.93918">
        <ele>373.6</ele>
      </rtept>
      <rtept lat="45.55191" lon="5.93893">
        <ele>366.7</ele>
      </rtept>
    </rte>
  <rte>
    <name><![CDATA[10 févr. 2019 à 09:07:08]]></name>
    <cmt><![CDATA[10 févr. 2019 à 09:07:08]]></cmt>
    <desc><![CDATA[{DC1}Heure de fin	: 00:09:21
Durée totale	: -17690433h52:52
Moyenne globale	: -
Pente moyenne	: nan %
Aire incluse	: 0.0000 ha
Détails par segments
distance  | durée    | vit.moy. | vit.max. | déniv. + | déniv -
   km     | hh:mn:ss |   km/h   |   km/h   |    m     |    m
     0.00 | 00:00:00 |      0.0 |      0.0 |        0 |        0{DC2}]]></desc>
      <rtept lat="45.55102" lon="5.93919">
        <ele>370.1</ele>
      </rtept>
    </rte>
  <rte>
    <name><![CDATA[10 févr. 2019 à 09:02:25]]></name>
    <cmt><![CDATA[10 févr. 2019 à 09:02:25]]></cmt>
    <desc><![CDATA[{DC1}Heure de fin	: 00:09:21
Durée totale	: -17690433h57:35
Moyenne globale	: -
Pente moyenne	: nan %
Aire incluse	: 0.0000 ha
Détails par segments
distance  | durée    | vit.moy. | vit.max. | déniv. + | déniv -
   km     | hh:mn:ss |   km/h   |   km/h   |    m     |    m
     0.00 | 00:00:00 |      0.0 |      0.0 |        0 |        0{DC2}]]></desc>
      <rtept lat="45.55207" lon="5.93813">
        <ele>375.2</ele>
      </rtept>
    </rte>
  <rte>
    <name><![CDATA[10 févr. 2019 à 09:00:27]]></name>
    <cmt><![CDATA[10 févr. 2019 à 09:00:27]]></cmt>
    <desc><![CDATA[{DC1}Heure de fin	: 00:09:21
Durée totale	: -17690433h59:32
Moyenne globale	: -
Pente moyenne	: nan %
Aire incluse	: 0.0000 ha
Détails par segments
distance  | durée    | vit.moy. | vit.max. | déniv. + | déniv -
   km     | hh:mn:ss |   km/h   |   km/h   |    m     |    m
     0.00 | 00:00:00 |      0.0 |      0.0 |        0 |        0{DC2}]]></desc>
      <rtept lat="45.55244" lon="5.93858">
        <ele>366.6</ele>
      </rtept>
    </rte>
</gpx>